Details for Norwegian Air Shuttle at EGKK




Go Back


Latest METAR
Local Time

EGKK 232320Z VRB01KT CAVOK M02/M04 Q1019

23/02/2018, 23:45:23

Description
Results
Norwegian Air Shuttle Logo
Number of Pilots based at EGKK
7 Pilots Based here
Number of Norwegian Air Shuttle Flights Departed from EGKK
2 Flights Departed
Number of Norwegian Air Shuttle Flights Arrived at EGKK
0 Flights Arrived
Number of Norwegian Air Shuttle Schedules Departing from EGKK
25 Schedules
Number of Norwegian Air Shuttle Schedules Arriving at EGKK
28 Schedules
Number of Norwegian Air Shuttle Schedules Departing from EGKK availible today
10 Schedules Today
Number of Norwegian Air Shuttle Schedules Arriving at EGKK availible today
10 Schedules Today
Average Landing Rate at EGKK
-231 fpm
Norwegian Air Shuttle Average Landing Rate at EGKK
0 fpm
Total Fuel Purchased at EGKK by Norwegian Air Shuttle
21,072.05 kgs / 46,455.44 lbs

Pilots Based at EGKK


Pilot ID
Pilot Name
Pilot Rank
No. of Flights
No. of Flying Hours
Dan Symons
107
380.28
George Jones
35
95.53
Maurice Lyon
41
233.42
Matthew Smith
93
700.29
Pete Desjardins
1
1.59
William Shaw
180
430.37
Clive Kent
0
0
Content